Cedar Park's Hourly Summary for Saturday, March 18, 2017
Hour Temp
(f)
RH
(%)
Solar Rad.
(MJ/m2)
Rainfall
(in)
Wind
(mph)
3/18/2017 12:00 AM 67 84 0 0 7.87
3/18/2017 1:00 AM 65 87 0 0 6.8
3/18/2017 2:00 AM 64 94 0 0 5.05
3/18/2017 3:00 AM 63 99 0 0 3.86
3/18/2017 4:00 AM 64 99 0 0 4.23
3/18/2017 5:00 AM 63 99 0 0 2.67
3/18/2017 6:00 AM 63 99 0 0 2.98
3/18/2017 7:00 AM 63 100 0 0 3.67
3/18/2017 8:00 AM 63 100 0.01 0 2.21
3/18/2017 9:00 AM 63 100 0.2 0 2.33
3/18/2017 10:00 AM 65 99 0.58 0 3.96
3/18/2017 11:00 AM 67 91 0.94 0 4.34
3/18/2017 12:00 PM 68 82 1.04 0 5.21
3/18/2017 1:00 PM 71 71 1.26 0 5.13
3/18/2017 2:00 PM 73 64 1.74 0 4.03
3/18/2017 3:00 PM 75 52 1.89 0 5.2
3/18/2017 4:00 PM 77 51 1.88 0 6.09
3/18/2017 5:00 PM 78 48 1.51 0 5.11
3/18/2017 6:00 PM 78 49 0.63 0 5.31
3/18/2017 7:00 PM 78 49 0.2 0 5.05
3/18/2017 8:00 PM 75 55 0.05 0 1.12
3/18/2017 9:00 PM 68 71 0 0 0
3/18/2017 10:00 PM 66 80 0 0 0
3/18/2017 11:00 PM 68 78 0 0 2.35
Data Summary 68 79 11.93 0.00 3.94